KGLY

Clinton Regional Airport

Clinton, Missouri, USA
METAR KGLY 171955Z AUTO 01008KT 5SM HZ CLR 19/03 A3042 RMK AO2
Observed Flight Rules
Oct-17 @ 19:55 UTC (33 minutes ago) Marginal Visual Flight Rules
Wind Visibility Clouds Conditions
10° at 8 knots 5 miles
  • Clear skies
  • Haze
Temperatures Readings
Current 19°C / 66°F
Dewpoint 3°C / 37°F
Humidity 35%
Altimeter 30.42" Hg
Pressure 1030 hPa
Elevation 251
METAR KGLY 171955Z AUTO 01008KT 5SM HZ CLR 19/03 A3042 RMK AO2
Observed Flight Rules
Oct-17 @ 19:55 UTC
(33 minutes ago)
MVFR
Wind Visibility
10° at 8 knots 5 miles
Clouds
  • Clear skies
Conditions
  • Haze
Temperature Dewpoint
19°C / 66°F 3°C / 37°F
Humidity Altimeter Pressure
35% 30.42" Hg 1030 hPa